Tiempo atmosférico en la estación meteorológica de Cañizares, Cuenca (940 m.)



Fecha
DESCASC
Temp. máxima en grados centígrados (hora)
DESCASC
Temp. mínima en grados centígrados (hora)
DESCASC
Temp. media en grados centígrados
DESCASC
Racha de viento máxima en m/sg (hora)
DESCASC
Velocidad máxima media en intervalos de 10 minutos(hora)
DESCASC
Precipitaciones diarias en mm
DESCASC
Precipitaciones de 00:00 a 06:00 en mm
DESCASC
Precipitaciones de 06:00 a 12:00 en mm
DESCASC
Precipitaciones de 12:00 a 18:00 en mm
DESCASC
Precipitaciones de 18:00 a 24:00 en mm
DESCASC
23-06-2019 33.5 (18:30) 12.3 (06:50) 22.9 -- (--) -- (--) 0 0 0 0 0
22-06-2019 30.9 (18:50) 10.3 (07:50) 20.6 -- (--) -- (--) 0 0 0 0 0
21-06-2019 30.3 (17:50) 12.6 (07:50) 21.4 -- (--) -- (--) 0 0 0 0 0
20-06-2019 29.3 (18:20) 10 (00:00) 19.6 -- (--) -- (--) 0 0 0 0 0
19-06-2019 29.2 (18:00) 9.7 (00:00) 19.5 -- (--) -- (--) 0 0 0 0 0
18-06-2019 30.9 (17:50) 12 (00:00) 21.4 -- (--) -- (--) 0 0 0 0 0
17-06-2019 31.9 (18:30) 9.2 (00:00) 20.5 -- (--) -- (--) 0 0 0 0 0
16-06-2019 28.8 (16:00) 6.3 (00:00) 17.5 -- (--) -- (--) 0 0 0 0 0
15-06-2019 27 (19:20) 6.6 (00:00) 16.8 -- (--) -- (--) 0 0 0 0 0
14-06-2019 27.1 (16:10) 12.9 (00:00) 20 -- (--) -- (--) 0 0 0 0 0
13-06-2019 26.7 (17:30) 7.7 (00:00) 17.2 -- (--) -- (--) 0 0 0 0 0
12-06-2019 25 (18:20) 2 (00:00) 13.5 -- (--) -- (--) 0 0 0 0 0
11-06-2019 20.3 (19:20) 7.4 (00:00) 13.8 -- (--) -- (--) 0 0 0 0 0
10-06-2019 26.2 (20:10) 7.3 (00:00) 16.8 -- (--) -- (--) 0 0 0 0 0
09-06-2019 27.7 (19:10) 9.6 (00:00) 18.7 -- (--) -- (--) 0 0 0 0 0
08-06-2019 -- (--) -- (--) -- -- (--) -- (--) 0 0 0 0 0
07-06-2019 23.6 (19:00) 9.3 (00:00) 16.5 -- (--) -- (--) 0 0 0 0 0
06-06-2019 25.4 (18:10) 3.8 (00:00) 14.6 -- (--) -- (--) 0 0 0 0 0
05-06-2019 21.7 (18:30) 9.2 (00:00) 15.5 -- (--) -- (--) 1.4 0.2 0.8 0.3 0.1
04-06-2019 30.3 (15:40) 9.4 (00:00) 19.8 -- (--) -- (--) 0 0 0 0 0
03-06-2019 32.4 (17:40) 12.2 (00:00) 22.3 -- (--) -- (--) 0 0 0 0 0
02-06-2019 33.5 (18:00) 8.5 (00:00) 21 -- (--) -- (--) 0 0 0 0 0
01-06-2019 32.1 (17:50) 8.9 (00:00) 20.5 -- (--) -- (--) 0 0 0 0 0
31-05-2019 31.9 (17:00) 6.7 (00:00) 19.3 -- (--) -- (--) 0 0 0 0 0
30-05-2019 29.6 (17:00) 5.5 (00:00) 17.6 -- (--) -- (--) 0 0 0 0 0
29-05-2019 23.7 (18:10) 6.7 (00:00) 15.2 -- (--) -- (--) 0 0 0 0 0
28-05-2019 24 (16:50) 7.5 (00:00) 15.8 -- (--) -- (--) 0 0 0 0 0
27-05-2019 27.4 (18:50) 6.3 (00:00) 16.8 -- (--) -- (--) 0 0 0 0 0
26-05-2019 24.1 (19:00) 7 (00:00) 15.6 -- (--) -- (--) 0 0 0 0 0

Gráficas

Temp. máximas Temp. mínimas Temp. medias Precipitaciones Rachas de viento máximas Velocidades máximas media en intervalos de 10 minutos

Datos horarios

Fecha y hora oficial Temperatura (ºC) Velocidad del viento (km/h) Dirección del viento Racha (km/h) Dirección de racha Precipitación (mm) Presión (hPa) Tendencia (hPa) Humedad (%)
2019-06-24 23:00:00 20.4 -- -- -- -- 0 910.2 1.7 88
2019-06-24 22:00:00 22.2 -- -- -- -- 0 909.4 1.2 82
2019-06-24 21:00:00 25.7 -- -- -- -- 0 909 0.7 68
2019-06-24 20:00:00 28.4 -- -- -- -- 0 908.5 0.2 56
2019-06-24 19:00:00 30.3 -- -- -- -- 0 908.2 -0.5 52
2019-06-24 18:00:00 31.6 -- -- -- -- 0 908.3 -0.3 52
2019-06-24 17:00:00 31.8 -- -- -- -- 0 908.3 -0.6 55
2019-06-24 16:00:00 31.5 -- -- -- -- 0 908.7 -0.9 54
2019-06-24 15:00:00 30.4 -- -- -- -- 0 908.6 -1.5 54
2019-06-24 14:00:00 30.8 -- -- -- -- 0 908.9 -0.9 56
2019-06-24 13:00:00 28.1 -- -- -- -- 0 909.6 -0.4 58
2019-06-24 12:00:00 26.6 -- -- -- -- 0 910.1 0 62
2019-06-24 11:00:00 25.3 -- -- -- -- 0 909.8 0 64
2019-06-24 10:00:00 20.8 -- -- -- -- 0 910 0.2 86
2019-06-24 09:00:00 16 -- -- -- -- 0 910.1 0.5 98
2019-06-24 08:00:00 14.3 -- -- -- -- 0 909.8 0.1 98
2019-06-24 07:00:00 13.9 -- -- -- -- 0 909.8 0 96
2019-06-24 06:00:00 14.4 -- -- -- -- 0 909.6 -0.3 95
2019-06-24 05:00:00 15.5 -- -- -- -- 0 909.7 -0.2 92
2019-06-24 04:00:00 16.5 -- -- -- -- 0 909.8 0.3 92
2019-06-24 03:00:00 18.6 -- -- -- -- 0 909.9 0.6 89
2019-06-24 02:00:00 18 -- -- -- -- 0 909.9 1 99
2019-06-24 01:00:00 18 -- -- -- -- 0 909.5 1.3 97
2019-06-24 00:00:00 19.2 -- -- -- -- 0 909.3 1.4 93
2019-06-23 23:00:00 20.4 -- -- -- -- 0 908.9 1 85
2019-06-23 22:00:00 22.8 -- -- -- -- 0 908.2 0.5 77
2019-06-23 21:00:00 25.4 -- -- -- -- 0 907.9 -0.1 71
2019-06-23 20:00:00 30.3 -- -- -- -- 0 907.9 -0.3 52
2019-06-23 19:00:00 31.9 -- -- -- -- 0 907.7 -1 47
2019-06-23 18:00:00 31.7 -- -- -- -- 0 908 -1.1 48
2019-06-23 17:00:00 32.3 -- -- -- -- 0 908.2 -1.1 47
2019-06-23 16:00:00 30.9 -- -- -- -- 0 908.7 -1.1 49
2019-06-23 15:00:00 30 -- -- -- -- 0 909.1 -0.9 52
2019-06-23 14:00:00 30.3 -- -- -- -- 0 909.3 -0.7 54
2019-06-23 13:00:00 29.8 -- -- -- -- 0 909.8 -0.6 54
2019-06-23 12:00:00 27.5 -- -- -- -- 0 910 -0.3 56
2019-06-23 11:00:00 26.7 -- -- -- -- 0 910 -0.5 63
2019-06-23 10:00:00 23.5 -- -- -- -- 0 910.4 0.4 78
2019-06-23 09:00:00 15.2 -- -- -- -- 0 910.3 0.6 99
2019-06-23 08:00:00 13.2 -- -- -- -- 0 910.5 0.9 99
2019-06-23 07:00:00 12.9 -- -- -- -- 0 910 0.2 99
2019-06-23 06:00:00 13.5 -- -- -- -- 0 909.7 -0.2 99
2019-06-23 05:00:00 14.1 -- -- -- -- 0 909.6 -0.3 99
2019-06-23 04:00:00 14.5 -- -- -- -- 0 909.8 -0.4 99
2019-06-23 03:00:00 14.9 -- -- -- -- 0 909.9 -0.4 99
2019-06-23 02:00:00 15 -- -- -- -- 0 909.9 0.3 97
2019-06-23 01:00:00 15.8 -- -- -- -- 0 910.2 1.1 91
2019-06-23 00:00:00 17.4 -- -- -- -- 0 910.3 1.5 81
2019-06-22 23:00:00 18.5 -- -- -- -- 0 909.6 1.1 77
2019-06-22 22:00:00 21.2 -- -- -- -- 0 909.1 0.5 73
2019-06-22 21:00:00 26.9 -- -- -- -- 0 908.8 -0.1 55
2019-06-22 20:00:00 28.5 -- -- -- -- 0 908.5 -0.6 50
2019-06-22 19:00:00 29.3 -- -- -- -- 0 908.6 -1.1 51
2019-06-22 18:00:00 28.6 -- -- -- -- 0 908.9 -1.3 49
2019-06-22 17:00:00 28.9 -- -- -- -- 0 909.1 -1.8 49
2019-06-22 16:00:00 28.1 -- -- -- -- 0 909.7 -1.8 55
2019-06-22 15:00:00 27.5 -- -- -- -- 0 910.2 -1.5 56
2019-06-22 14:00:00 28 -- -- -- -- 0 910.9 -0.5 59
2019-06-22 13:00:00 26.1 -- -- -- -- 0 911.5 -0.4 69
2019-06-22 12:00:00 23.2 -- -- -- -- 0 911.7 -0.5 83
2019-06-22 11:00:00 23.8 -- -- -- -- 0 911.4 -1 82
2019-06-22 10:00:00 19.1 -- -- -- -- 0 911.9 -0.2 99
2019-06-22 09:00:00 14.7 -- -- -- -- 0 912.2 0.2 99
2019-06-22 08:00:00 10.8 -- -- -- -- 0 912.4 0.5 99
2019-06-22 07:00:00 10.7 -- -- -- -- 0 912.1 -0.2 99
2019-06-22 06:00:00 11 -- -- -- -- 0 912 -0.4 99
2019-06-22 05:00:00 11.4 -- -- -- -- 0 911.9 -0.5 99
2019-06-22 04:00:00 11.9 -- -- -- -- 0 912.3 0.1 99
2019-06-22 03:00:00 12.9 -- -- -- -- 0 912.4 0.4 99
2019-06-22 02:00:00 13.7 -- -- -- -- 0 912.4 0.9 99
2019-06-22 01:00:00 14.6 -- -- -- -- 0 912.2 1.3 99
2019-06-22 00:00:00 16.4 -- -- -- -- 0 912 1.6 97
2019-06-21 23:00:00 18.2 -- -- -- -- 0 911.5 1.7 91
2019-06-21 22:00:00 19.4 -- -- -- -- 0 910.9 1.8 86
2019-06-21 21:00:00 21.5 -- -- -- -- 0 910.4 1.8 76
2019-06-21 20:00:00 24.4 -- -- -- -- 0 909.8 1.1 72
2019-06-21 19:00:00 24.5 -- -- -- -- 0 909.1 0.4 70
2019-06-21 18:00:00 27.6 -- -- -- -- 0 908.6 -0.3 49
2019-06-21 17:00:00 29.3 -- -- -- -- 0 908.7 -0.7 49
2019-06-21 16:00:00 27.7 -- -- -- -- 0 908.7 -0.9 47
2019-06-21 15:00:00 27.5 -- -- -- -- 0 908.9 -0.8 55
2019-06-21 14:00:00 26.6 -- -- -- -- 0 909.4 -0.3 58
2019-06-21 13:00:00 25.3 -- -- -- -- 0 909.6 -0.1 69
2019-06-21 12:00:00 23.6 -- -- -- -- 0 909.7 0.1 73
2019-06-21 11:00:00 23.4 -- -- -- -- 0 909.7 0 79
2019-06-21 10:00:00 20.1 -- -- -- -- 0 909.7 0.6 99
2019-06-21 09:00:00 15.3 -- -- -- -- 0 909.6 0.9 99
2019-06-21 08:00:00 13.7 -- -- -- -- 0 909.7 1.2 99
2019-06-21 07:00:00 12.9 -- -- -- -- 0 909.1 0.4 99
2019-06-21 06:00:00 14 -- -- -- -- 0 908.7 -0.1 99
2019-06-21 05:00:00 14.9 -- -- -- -- 0 908.5 -0.4 99
2019-06-21 04:00:00 15.4 -- -- -- -- 0 908.7 0.1 99
2019-06-21 03:00:00 16 -- -- -- -- 0 908.8 0.4 99
2019-06-21 02:00:00 16.2 -- -- -- -- 0 908.9 0.7 97
2019-06-21 01:00:00 16.7 -- -- -- -- 0 908.6 1.1 96
2019-06-21 00:00:00 16.8 -- -- -- -- 0 908.4 1.4 93
2019-06-20 23:00:00 17.5 -- -- -- -- 0 908.2 1.1 88
2019-06-20 22:00:00 19.4 -- -- -- -- 0 907.5 0.4 85
2019-06-20 21:00:00 23.1 -- -- -- -- 0 907 -0.3 72
2019-06-20 20:00:00 25.4 -- -- -- -- 0 907.1 -0.3 59
2019-06-20 19:00:00 26.3 -- -- -- -- 0 907.1 -0.9 58
2019-06-20 18:00:00 27.4 -- -- -- -- 0 907.3 -0.9 59
2019-06-20 17:00:00 25.4 -- -- -- -- 0 907.4 -1.2 62
2019-06-20 16:00:00 25.8 -- -- -- -- 0 908 -1.1 63
2019-06-20 15:00:00 26.4 -- -- -- -- 0 908.2 -0.9 64
2019-06-20 14:00:00 24.3 -- -- -- -- 0 908.6 -0.5 68
2019-06-20 13:00:00 24.4 -- -- -- -- 0 909.1 -0.4 70
2019-06-20 12:00:00 24.9 -- -- -- -- 0 909.1 -0.8 70
2019-06-20 11:00:00 23.6 -- -- -- -- 0 909.1 -0.9 76
2019-06-20 10:00:00 18.5 -- -- -- -- 0 909.5 -0.6 99
2019-06-20 09:00:00 13.4 -- -- -- -- 0 909.9 0 99
2019-06-20 08:00:00 10.7 -- -- -- -- 0 910 0.2 99
2019-06-20 07:00:00 10.2 -- -- -- -- 0 910.1 0.1 99
2019-06-20 06:00:00 10.6 -- -- -- -- 0 909.9 -0.3 99
2019-06-20 05:00:00 11.1 -- -- -- -- 0 909.8 -0.5 99
2019-06-20 04:00:00 12 -- -- -- -- 0 910 0 99
2019-06-20 03:00:00 12.9 -- -- -- -- 0 910.2 0.1 99
2019-06-20 02:00:00 13.8 -- -- -- -- 0 910.3 0.4 99
2019-06-20 01:00:00 15.2 -- -- -- -- 0 910 0.8 99
2019-06-20 00:00:00 15.8 -- -- -- -- 0 910.1 1.2 99
2019-06-19 23:00:00 17.9 -- -- -- -- 0 909.9 1.7 94
2019-06-19 22:00:00 19.9 -- -- -- -- 0 909.2 0.7 86
2019-06-19 21:00:00 24.2 -- -- -- -- 0 908.9 0.1 67
2019-06-19 20:00:00 27.2 -- -- -- -- 0 908.2 -0.6 62
2019-06-19 19:00:00 26 -- -- -- -- 0 908.5 -1 64
2019-06-19 18:00:00 29.2 -- -- -- -- 0 908.8 -1.4 62
2019-06-19 17:00:00 26.7 -- -- -- -- 0 908.8 -1.7 64
2019-06-19 16:00:00 26.5 -- -- -- -- 0 909.5 -1.2 67
2019-06-19 15:00:00 24.8 -- -- -- -- 0 910.2 -0.5 71
2019-06-19 14:00:00 23.5 -- -- -- -- 0 910.5 0 75
2019-06-19 13:00:00 21.8 -- -- -- -- 0 910.7 -0.1 82
2019-06-19 12:00:00 21.7 -- -- -- -- 0 910.7 -0.3 87
2019-06-19 11:00:00 20.4 -- -- -- -- 0 910.5 -0.6 91
2019-06-19 10:00:00 17.5 -- -- -- -- 0 910.8 0.1 94
2019-06-19 09:00:00 14.9 -- -- -- -- 0 911 0.6 99
2019-06-19 08:00:00 11.3 -- -- -- -- 0 911.1 0.9 99
2019-06-19 07:00:00 10 -- -- -- -- 0 910.7 0.7 99
2019-06-19 06:00:00 10.7 -- -- -- -- 0 910.4 0.5 99
2019-06-19 05:00:00 11.2 -- -- -- -- 0 910.2 0 99
2019-06-19 04:00:00 12.5 -- -- -- -- 0 910 -0.2 94
2019-06-19 03:00:00 13 -- -- -- -- 0 909.9 -0.1 92
2019-06-19 02:00:00 13.5 -- -- -- -- 0 910.2 0.8 89
2019-06-19 01:00:00 14.8 -- -- -- -- 0 910.2 1.8 86
2019-06-19 00:00:00 15.4 -- -- -- -- 0 910 2 80
2019-06-18 23:00:00 18.2 -- -- -- -- 0 909.4 1.6 73
2019-06-18 22:00:00 22.4 -- -- -- -- 0 908.4 1 54
2019-06-18 21:00:00 27 -- -- -- -- 0 908 0.2 46
2019-06-18 20:00:00 29.1 -- -- -- -- 0 907.8 -0.4 45
2019-06-18 19:00:00 30 -- -- -- -- 0 907.4 -1.3 45
2019-06-18 18:00:00 30.2 -- -- -- -- 0 907.8 -0.8 46
2019-06-18 17:00:00 28.9 -- -- -- -- 0 908.2 -1.2 46
2019-06-18 16:00:00 28.8 -- -- -- -- 0 908.7 -1.1 48
2019-06-18 15:00:00 29.1 -- -- -- -- 0 908.6 -1.7 50
2019-06-18 14:00:00 28.7 -- -- -- -- 0 909.4 -1 52
2019-06-18 13:00:00 26.7 -- -- -- -- 0 909.8 -0.7 54
2019-06-18 12:00:00 25.4 -- -- -- -- 0 910.3 -0.4 56
2019-06-18 11:00:00 24.3 -- -- -- -- 0 910.4 -0.2 60
2019-06-18 10:00:00 22.2 -- -- -- -- 0 910.5 0.6 73
2019-06-18 09:00:00 14.6 -- -- -- -- 0 910.7 0.8 99
2019-06-18 08:00:00 12.5 -- -- -- -- 0 910.6 0.5 99
2019-06-18 07:00:00 12.9 -- -- -- -- 0 909.9 -0.3 99
2019-06-18 06:00:00 13.8 -- -- -- -- 0 909.9 -0.3 99
2019-06-18 05:00:00 14.2 -- -- -- -- 0 910.1 -0.2 99
2019-06-18 04:00:00 14.6 -- -- -- -- 0 910.2 -0.4 98
2019-06-18 03:00:00 16.1 -- -- -- -- 0 910.2 -0.1 92
2019-06-18 02:00:00 15.2 -- -- -- -- 0 910.3 0.3 93
2019-06-18 01:00:00 16.1 -- -- -- -- 0 910.6 1 85
2019-06-18 00:00:00 16.9 -- -- -- -- 0 910.3 0.9 83
2019-06-17 23:00:00 18.4 -- -- -- -- 0 910 0.8 78
2019-06-17 22:00:00 20.2 -- -- -- -- -- 909.6 0.7 67
2019-06-17 21:00:00 24.2 -- -- -- -- 0 909.4 0 51
2019-06-17 20:00:00 30.3 -- -- -- -- 0 909.2 -0.5 41
2019-06-17 19:00:00 30.6 -- -- -- -- 0 908.9 -1.5 40
2019-06-17 18:00:00 30.5 -- -- -- -- 0 909.4 -1.3 40
2019-06-17 17:00:00 30.6 -- -- -- -- 0 909.7 -1.8 40
2019-06-17 16:00:00 29.5 -- -- -- -- 0 910.4 -1.4 43
2019-06-17 15:00:00 29 -- -- -- -- 0 910.7 -1.4 45
2019-06-17 14:00:00 28.3 -- -- -- -- 0 911.5 -1 46
2019-06-17 13:00:00 27.8 -- -- -- -- 0 911.8 -1.1 51
2019-06-17 12:00:00 26.9 -- -- -- -- 0 912.1 -1 61
2019-06-17 11:00:00 23.9 -- -- -- -- 0 912.5 -0.5 73
2019-06-17 10:00:00 18.3 -- -- -- -- 0 912.9 -0.2 99
2019-06-17 09:00:00 12.1 -- -- -- -- 0 913.1 0.2 99
2019-06-17 08:00:00 9.9 -- -- -- -- 0 913 0.1 99
2019-06-17 07:00:00 9.5 -- -- -- -- 0 913.1 0.1 99
2019-06-17 06:00:00 10 -- -- -- -- 0 912.9 -0.3 99
2019-06-17 05:00:00 10.8 -- -- -- -- 0 912.9 -0.3 99
2019-06-17 04:00:00 11.4 -- -- -- -- 0 913 -0.4 99
2019-06-17 03:00:00 12.4 -- -- -- -- 0 913.2 -0.2 99
2019-06-17 02:00:00 13.6 -- -- -- -- 0 913.2 0.3 99
2019-06-17 01:00:00 13.3 -- -- -- -- 0 913.4 1.2 99
2019-06-17 00:00:00 14.6 -- -- -- -- 0 913.4 1.6 98
2019-06-16 23:00:00 15.9 -- -- -- -- 0 912.9 1.1 91
2019-06-16 22:00:00 18.4 -- -- -- -- 0 912.2 0.7 77
2019-06-16 21:00:00 22.3 -- -- -- -- 0 911.8 0.4 65
2019-06-16 20:00:00 24.5 -- -- -- -- 0 911.8 0.2 57
2019-06-16 19:00:00 25.8 -- -- -- -- 0 911.5 -0.5 55
2019-06-16 18:00:00 27.5 -- -- -- -- 0 911.4 -1.3 52
2019-06-16 17:00:00 27.2 -- -- -- -- 0 911.6 -1.5 52
2019-06-16 16:00:00 27.7 -- -- -- -- 0 912 -1.2 51
2019-06-16 15:00:00 25.9 -- -- -- -- 0 912.7 -0.8 53
2019-06-16 14:00:00 26.2 -- -- -- -- 0 913.1 -0.7 53
2019-06-16 13:00:00 26.5 -- -- -- -- 0 913.2 -1 56
2019-06-16 12:00:00 25.2 -- -- -- -- 0 913.5 -1 58
2019-06-16 11:00:00 23.5 -- -- -- -- 0 913.8 -0.5 62
2019-06-16 10:00:00 17 -- -- -- -- 0 914.2 0 98
2019-06-16 09:00:00 10.3 -- -- -- -- 0 914.5 0.7 99
2019-06-16 08:00:00 7.3 -- -- -- -- 0 914.3 0.5 99
2019-06-16 07:00:00 6.4 -- -- -- -- 0 914.2 0.1 99
2019-06-16 06:00:00 7.4 -- -- -- -- 0 913.8 -0.6 99
2019-06-16 05:00:00 8.1 -- -- -- -- 0 913.8 -0.9 99
2019-06-16 04:00:00 8.8 -- -- -- -- 0 914.1 -0.8 99
2019-06-16 03:00:00 9.5 -- -- -- -- 0 914.4 0.1 97
2019-06-16 02:00:00 10.7 -- -- -- -- 0 914.7 0.7 93
2019-06-16 01:00:00 11.4 -- -- -- -- 0 914.9 2.1 90
2019-06-16 00:00:00 12.7 -- -- -- -- 0 914.3 1.9 87
2019-06-15 23:00:00 14.3 -- -- -- -- 0 914 2 83
2019-06-15 22:00:00 16.1 -- -- -- -- 0 912.8 1.1 75
2019-06-15 21:00:00 20.4 -- -- -- -- 0 912.4 0.6 54
2019-06-15 20:00:00 25.9 -- -- -- -- 0 912 0.1 43
2019-06-15 19:00:00 26.6 -- -- -- -- 0 911.7 -0.6 43
2019-06-15 18:00:00 26.3 -- -- -- -- 0 911.8 -0.3 43
2019-06-15 17:00:00 26.5 -- -- -- -- 0 911.9 -0.8 45
2019-06-15 16:00:00 23.5 -- -- -- -- 0 912.3 -0.6 48
2019-06-15 15:00:00 23.7 -- -- -- -- 0 912.1 -0.8 52
2019-06-15 14:00:00 22.5 -- -- -- -- 0 912.7 -0.3 58
2019-06-15 13:00:00 22.2 -- -- -- -- 0 912.9 -0.3 62
2019-06-15 12:00:00 20.9 -- -- -- -- 0 912.9 -0.3 65
2019-06-15 11:00:00 19.4 -- -- -- -- 0 913 -0.2 70
2019-06-15 10:00:00 16.1 -- -- -- -- 0 913.2 0.7 89
2019-06-15 09:00:00 9.1 -- -- -- -- 0 913.2 1 99
2019-06-15 08:00:00 7.3 -- -- -- -- 0 913.2 1.6 99
2019-06-15 07:00:00 7.1 -- -- -- -- 0 912.5 1 99
2019-06-15 06:00:00 7.1 -- -- -- -- 0 912.2 0.9 99
2019-06-15 05:00:00 7.9 -- -- -- -- 0 911.6 0.8 99
2019-06-15 04:00:00 8.9 -- -- -- -- 0 911.5 0.8 99
2019-06-15 03:00:00 9.8 -- -- -- -- 0 911.3 1 98
2019-06-15 02:00:00 10.9 -- -- -- -- 0 910.8 0.9 93
2019-06-15 01:00:00 12.3 -- -- -- -- 0 910.7 1.8 86
2019-06-15 00:00:00 13.7 -- -- -- -- 0 910.3 2.3 79
2019-06-14 23:00:00 15.5 -- -- -- -- 0 909.9 2.8 71
2019-06-14 22:00:00 17.4 -- -- -- -- 0 908.9 2.2 61
2019-06-14 21:00:00 22.4 -- -- -- -- 0 908 1.6 49
2019-06-14 20:00:00 23.8 -- -- -- -- 0 907.1 0.5 46
2019-06-14 19:00:00 25 -- -- -- -- 0 906.7 0 45
2019-06-14 18:00:00 25.6 -- -- -- -- 0 906.4 -0.6 45
2019-06-14 17:00:00 25.2 -- -- -- -- 0 906.6 -0.5 47
2019-06-14 16:00:00 26.5 -- -- -- -- 0 906.7 -0.1 52
2019-06-14 15:00:00 24.4 -- -- -- -- 0 907 -0.2 55
2019-06-14 14:00:00 24.3 -- -- -- -- 0 907.1 0 61
2019-06-14 13:00:00 23.2 -- -- -- -- 0 906.8 -0.6 59
2019-06-14 12:00:00 21.9 -- -- -- -- 0 907.2 0.3 73
2019-06-14 11:00:00 20.3 -- -- -- -- 0 907.1 0.8 84
2019-06-14 10:00:00 17.4 -- -- -- -- 0 907.4 1.8 99
2019-06-14 09:00:00 15 -- -- -- -- 0 906.9 1.3 99
2019-06-14 08:00:00 14 -- -- -- -- 0 906.3 0.7 99
2019-06-14 07:00:00 13.1 -- -- -- -- 0 905.6 -0.3 99
2019-06-14 06:00:00 13.9 -- -- -- -- 0 905.6 -0.3 99
2019-06-14 05:00:00 14.1 -- -- -- -- 0 905.6 -0.7 99
2019-06-14 04:00:00 15.3 -- -- -- -- 0 905.9 -0.8 99
2019-06-14 03:00:00 15.4 -- -- -- -- 0 905.9 -0.1 99
2019-06-14 02:00:00 15.5 -- -- -- -- 0 906.3 0.8 99
2019-06-14 01:00:00 15.4 -- -- -- -- 0 906.7 2 99
2019-06-14 00:00:00 15.5 -- -- -- -- 0 906 1.5 99
2019-06-13 23:00:00 17.2 -- -- -- -- 0 905.5 1.3 93
2019-06-13 22:00:00 18.5 -- -- -- -- 0 904.7 0.4 82
2019-06-13 21:00:00 23.5 -- -- -- -- 0 904.5 0 66
2019-06-13 20:00:00 24.6 -- -- -- -- 0 904.2 -0.6 63
2019-06-13 19:00:00 23.3 -- -- -- -- 0 904.3 -1 64
2019-06-13 18:00:00 23.2 -- -- -- -- 0 904.5 -1.1 61
2019-06-13 17:00:00 24.7 -- -- -- -- 0 904.8 -1 62
2019-06-13 16:00:00 24.4 -- -- -- -- 0 905.3 -0.9 62
2019-06-13 15:00:00 22.8 -- -- -- -- 0 905.6 -0.8 67
2019-06-13 14:00:00 23 -- -- -- -- 0 905.8 -0.9 72
2019-06-13 13:00:00 20.8 -- -- -- -- 0 906.2 -0.4 78
2019-06-13 12:00:00 21.5 -- -- -- -- 0 906.4 -0.2 77
2019-06-13 11:00:00 19.1 -- -- -- -- 0 906.7 0 85
2019-06-13 10:00:00 19 -- -- -- -- 0 906.6 0.2 91
2019-06-13 09:00:00 11.7 -- -- -- -- 0 906.6 0.3 99
2019-06-13 08:00:00 8.5 -- -- -- -- 0 906.7 0.8 99
2019-06-13 07:00:00 7.8 -- -- -- -- 0 906.4 0.2 99
2019-06-13 06:00:00 8.3 -- -- -- -- 0 906.3 0.2 99
2019-06-13 05:00:00 8.8 -- -- -- -- 0 905.9 -0.3 99
2019-06-13 04:00:00 9.1 -- -- -- -- 0 906.2 -0.5 99
2019-06-13 03:00:00 10.1 -- -- -- -- 0 906.1 -0.3 99
2019-06-13 02:00:00 10.8 -- -- -- -- 0 906.2 0 99
2019-06-13 01:00:00 11.4 -- -- -- -- 0 906.7 1.3 99
2019-06-13 00:00:00 10.9 -- -- -- -- 0 906.4 1.2 88
2019-06-12 23:00:00 13.4 -- -- -- -- 0 906.2 1 78
2019-06-12 22:00:00 15.2 -- -- -- -- 0 905.4 0.5 74
2019-06-12 21:00:00 21.4 -- -- -- -- 0 905.2 -0.3 46
2019-06-12 20:00:00 23.9 -- -- -- -- 0 905.2 -0.6 46
2019-06-12 19:00:00 22 -- -- -- -- 0 904.9 -1.4 48
2019-06-12 18:00:00 23.7 -- -- -- -- 0 905.5 -1.5 46
2019-06-12 17:00:00 22.4 -- -- -- -- 0 905.8 -1.8 45
2019-06-12 16:00:00 21.9 -- -- -- -- 0 906.3 -1.9 48
2019-06-12 15:00:00 21.2 -- -- -- -- 0 907 -1.3 51
2019-06-12 14:00:00 20 -- -- -- -- 0 907.6 -1.2 55
2019-06-12 13:00:00 19.4 -- -- -- -- 0 908.2 -0.9 57
2019-06-12 12:00:00 17.7 -- -- -- -- 0 908.3 -1 63
2019-06-12 11:00:00 16.5 -- -- -- -- 0 908.8 -0.3 67
2019-06-12 10:00:00 12.5 -- -- -- -- 0 909.1 0.2 97
2019-06-12 09:00:00 4.8 -- -- -- -- 0 909.3 0.9 99
2019-06-12 08:00:00 2.8 -- -- -- -- 0 909.1 0.6 99
2019-06-12 07:00:00 2.2 -- -- -- -- 0 908.9 0 99
2019-06-12 06:00:00 2.7 -- -- -- -- 0 908.4 -0.5 99
2019-06-12 05:00:00 3.2 -- -- -- -- 0 908.5 -0.7 99
2019-06-12 04:00:00 3.9 -- -- -- -- 0 908.9 -0.3 99
2019-06-12 03:00:00 4.7 -- -- -- -- 0 908.9 -0.6 99
2019-06-12 02:00:00 5.3 -- -- -- -- 0 909.2 -0.2 99
2019-06-12 01:00:00 6 -- -- -- -- 0 909.2 0.4 99
2019-06-12 00:00:00 7.5 -- -- -- -- 0 909.5 1.3 99
2019-06-11 23:00:00 8.9 -- -- -- -- 0 909.4 1.6 99
2019-06-11 22:00:00 10.8 -- -- -- -- 0 908.8 1.4 96
2019-06-11 21:00:00 14.6 -- -- -- -- 0 908.2 0.6 80
2019-06-11 20:00:00 15.8 -- -- -- -- 0 907.8 0.1 75
2019-06-11 19:00:00 17.9 -- -- -- -- 0 907.4 0.2 73
2019-06-11 18:00:00 15.5 -- -- -- -- 0 907.6 0 82
2019-06-11 17:00:00 15.8 -- -- -- -- 0 907.7 -0.1 86
2019-06-11 16:00:00 16.7 -- -- -- -- 0 907.2 -0.1 82
2019-06-11 15:00:00 14.6 -- -- -- -- 0 907.6 1.1 93
2019-06-11 14:00:00 12 -- -- -- -- 0 907.8 1.7 97
2019-06-11 13:00:00 12.2 -- -- -- -- 0 907.3 1.6 97
2019-06-11 12:00:00 12.5 -- -- -- -- 0 906.5 0.9 95
2019-06-11 11:00:00 13.8 -- -- -- -- 0 906.1 0.8 91
2019-06-11 10:00:00 13.8 -- -- -- -- 0 905.7 0.8 93
2019-06-11 09:00:00 13.2 -- -- -- -- 0 905.6 0.4 97
2019-06-11 08:00:00 12.2 -- -- -- -- 0 905.3 -0.2 99
2019-06-11 07:00:00 11.5 -- -- -- -- 0 904.9 -1 99
2019-06-11 06:00:00 12 -- -- -- -- 0 905.2 -1.3 99
2019-06-11 05:00:00 11.9 -- -- -- -- 0 905.5 -1.5 99
2019-06-11 04:00:00 12 -- -- -- -- 0 905.9 -1.7 99
2019-06-11 03:00:00 11.9 -- -- -- -- 0 906.5 -1.3 98
2019-06-11 02:00:00 11.4 -- -- -- -- 0 907 -0.7 98
2019-06-11 01:00:00 11.4 -- -- -- -- 0 907.6 0.9 95
2019-06-11 00:00:00 12.8 -- -- -- -- 0 907.8 1.2 91
2019-06-10 23:00:00 14.4 -- -- -- -- 0 907.7 1.1 86
2019-06-10 22:00:00 16.4 -- -- -- -- 0 906.7 -0.3 84
2019-06-10 21:00:00 22.2 -- -- -- -- 0 906.6 -0.6 56
2019-06-10 20:00:00 25.7 -- -- -- -- 0 906.6 -1.2 52
2019-06-10 19:00:00 23.6 -- -- -- -- 0 907 -1.1 54
2019-06-10 18:00:00 24.3 -- -- -- -- 0 907.2 -1.3 55
2019-06-10 17:00:00 23.1 -- -- -- -- 0 907.8 -1.5 58
2019-06-10 16:00:00 22.4 -- -- -- -- 0 908.1 -1.5 61
2019-06-10 15:00:00 22.7 -- -- -- -- 0 908.5 -1.3 61
2019-06-10 14:00:00 20.6 -- -- -- -- 0 909.3 -1 65
2019-06-10 13:00:00 21.4 -- -- -- -- 0 909.6 -0.7 65
2019-06-10 12:00:00 20.3 -- -- -- -- 0 909.8 -0.9 70
2019-06-10 11:00:00 20.6 -- -- -- -- 0 910.3 -0.3 74
2019-06-10 10:00:00 17.2 -- -- -- -- 0 910.3 -0.4 97
2019-06-10 09:00:00 10.6 -- -- -- -- 0 910.7 0.5 99
2019-06-10 08:00:00 8.9 -- -- -- -- 0 910.6 0 99
2019-06-10 07:00:00 7.8 -- -- -- -- 0 910.7 -0.1 99
2019-06-10 06:00:00 7.6 -- -- -- -- 0 910.2 -0.5 99
2019-06-10 05:00:00 8.2 -- -- -- -- 0 910.6 0.1 99
2019-06-10 04:00:00 8.8 -- -- -- -- 0 910.8 0.2 96
2019-06-10 03:00:00 9.3 -- -- -- -- 0 910.7 0.2 95
2019-06-10 02:00:00 9.6 -- -- -- -- 0 910.5 0.2 94
2019-06-10 01:00:00 11.4 -- -- -- -- 0 910.6 1.3 90
2019-06-10 00:00:00 12.4 -- -- -- -- 0 910.5 1.7 91
2019-06-09 23:00:00 14 -- -- -- -- 0 910.3 1.8 87
2019-06-09 22:00:00 16.9 -- -- -- -- 0 909.3 1 75
2019-06-09 21:00:00 23.1 -- -- -- -- 0 908.8 0.2 50
2019-06-09 20:00:00 26.4 -- -- -- -- 0 908.5 -0.4 46
2019-06-09 19:00:00 26.8 -- -- -- -- 0 908.3 -1.3 44
2019-06-09 18:00:00 25.9 -- -- -- -- 0 908.6 -1.2 46
2019-06-09 17:00:00 26.5 -- -- -- -- 0 908.9 -1.3 48
2019-06-09 16:00:00 26.3 -- -- -- -- 0 909.6 -1.6 52
2019-06-09 15:00:00 23.9 -- -- -- -- 0 909.8 -1.3 54
2019-06-09 14:00:00 24.9 -- -- -- -- 0 910.2 -1.1 55
2019-06-09 13:00:00 23.3 -- -- -- -- 0 911.2 -0.2 55
2019-06-09 12:00:00 23.2 -- -- -- -- 0 911.1 -0.5 59
2019-06-09 11:00:00 21.6 -- -- -- -- 0 911.3 -0.8 70
2019-06-09 10:00:00 19.2 -- -- -- -- 0 911.4 -0.4 93
2019-06-09 09:00:00 12.2 -- -- -- -- 0 911.6 -0.3 99
2019-06-09 08:00:00 10.3 -- -- -- -- 0 912.1 0.1 99
2019-06-09 07:00:00 9.9 -- -- -- -- 0 911.8 -0.3 99
2019-06-09 06:00:00 10.9 -- -- -- -- 0 911.9 -0.3 99
2019-06-09 05:00:00 11.5 -- -- -- -- 0 912 -0.6 99
2019-06-09 04:00:00 12.4 -- -- -- -- 0 912.1 -0.6 99
2019-06-09 03:00:00 13 -- -- -- -- 0 912.2 -0.6 99
2019-06-09 02:00:00 14 -- -- -- -- 0 912.6 -0.1 99
2019-06-09 01:00:00 15.2 -- -- -- -- 0 912.7 -- 95
2019-06-09 00:00:00 16.2 -- -- -- -- 0 912.8 1.3 90
2019-06-08 23:00:00 18.2 -- -- -- -- 0 912.7 1.2 78
2019-06-08 22:00:00 -- -- -- -- -- 0 -- -- --
2019-06-08 21:00:00 21.9 -- -- -- -- 0 911.5 -0.1 69
2019-06-08 20:00:00 23.5 -- -- -- -- 0 911.5 -0.3 67
2019-06-08 19:00:00 24.3 -- -- -- -- 0 911.6 -0.6 65
2019-06-08 18:00:00 24.8 -- -- -- -- 0 911.6 -1 61
2019-06-08 17:00:00 25.2 -- -- -- -- 0 911.8 -1.7 58
2019-06-08 16:00:00 27.4 -- -- -- -- 0 912.2 -1.5 58
2019-06-08 15:00:00 24.8 -- -- -- -- 0 912.6 -1.5 61
2019-06-08 14:00:00 24.3 -- -- -- -- 0 913.5 -0.5 63
2019-06-08 13:00:00 24.1 -- -- -- -- 0 913.7 -0.8 63
2019-06-08 12:00:00 22.3 -- -- -- -- 0 914.1 -0.6 65
2019-06-08 11:00:00 21.8 -- -- -- -- 0 914 -1.2 68
2019-06-08 10:00:00 19.3 -- -- -- -- 0 914.5 -0.7 83
2019-06-08 09:00:00 10.6 -- -- -- -- 0 914.7 -0.5 99
2019-06-08 08:00:00 7.8 -- -- -- -- 0 915.2 0 99
2019-06-08 07:00:00 6 -- -- -- -- 0 915.2 0 99
2019-06-08 06:00:00 5.7 -- -- -- -- 0 915.2 0 99
2019-06-08 05:00:00 5.9 -- -- -- -- 0 915.2 -0.1 99
2019-06-08 04:00:00 6.3 -- -- -- -- 0 915.2 0.1 99
2019-06-08 03:00:00 6.8 -- -- -- -- 0 915.2 0.2 99
2019-06-08 02:00:00 7.3 -- -- -- -- 0 915.3 0.7 95
2019-06-08 01:00:00 7.9 -- -- -- -- 0 915.1 1.5 92
2019-06-08 00:00:00 9.3 -- -- -- -- 0 915 2.3 88
2019-06-07 23:00:00 10.6 -- -- -- -- 0 914.6 2.3 84
2019-06-07 22:00:00 12.8 -- -- -- -- 0 913.6 2 77
2019-06-07 21:00:00 17.3 -- -- -- -- 0 912.7 1.3 57
2019-06-07 20:00:00 21.9 -- -- -- -- 0 912.3 1.1 47
2019-06-07 19:00:00 22.6 -- -- -- -- 0 911.6 0.6 46
2019-06-07 18:00:00 21.9 -- -- -- -- 0 911.4 0.8 48
2019-06-07 17:00:00 21.9 -- -- -- -- 0 911.2 0.8 51
2019-06-07 16:00:00 20.8 -- -- -- -- 0 911 0.9 52
2019-06-07 15:00:00 19.9 -- -- -- -- 0 910.6 0.9 54
2019-06-07 14:00:00 17.4 -- -- -- -- 0 910.4 1 61
2019-06-07 13:00:00 17.1 -- -- -- -- 0 910.1 1.5 64
2019-06-07 12:00:00 16.8 -- -- -- -- 0 909.7 1.5 71
2019-06-07 11:00:00 13.7 -- -- -- -- 0 909.4 2.4 88
2019-06-07 10:00:00 13.9 -- -- -- -- 0 908.6 2.6 91
2019-06-07 09:00:00 11.7 -- -- -- -- 0 908.2 3.1 99
2019-06-07 08:00:00 12.4 -- -- -- -- 0 907 2.4 99
2019-06-07 07:00:00 14.2 -- -- -- -- 0 906 1.3 96
2019-06-07 06:00:00 14.6 -- -- -- -- 0 905.1 0.8 90
2019-06-07 05:00:00 15.1 -- -- -- -- 0 904.6 0.4 85
2019-06-07 04:00:00 15.4 -- -- -- -- 0 904.7 0.4 82
2019-06-07 03:00:00 15.2 -- -- -- -- 0 904.3 0.4 80
2019-06-07 02:00:00 13.9 -- -- -- -- 0 904.2 0.7 92
2019-06-07 01:00:00 16.7 -- -- -- -- 0 904.3 1.2 83
2019-06-07 00:00:00 18.1 -- -- -- -- 0 903.9 0.7 65
2019-06-06 23:00:00 18.2 -- -- -- -- 0 903.5 0.6 57
2019-06-06 22:00:00 19.3 -- -- -- -- 0 903.1 -0.1 53
2019-06-06 21:00:00 20.9 -- -- -- -- 0 903.2 -0.5 50
2019-06-06 20:00:00 23.3 -- -- -- -- 0 902.9 -1.6 46
2019-06-06 19:00:00 24.6 -- -- -- -- 0 903.2 -2.4 47
2019-06-06 18:00:00 23.9 -- -- -- -- 0 903.7 -2.3 48
2019-06-06 17:00:00 23.6 -- -- -- -- 0 904.5 -1.9 49
2019-06-06 16:00:00 23.6 -- -- -- -- 0 905.6 -1.6 49
2019-06-06 15:00:00 21.3 -- -- -- -- 0 906 -1.5 52
2019-06-06 14:00:00 19.5 -- -- -- -- 0 906.4 -1.4 57
2019-06-06 13:00:00 19.9 -- -- -- -- 0 907.2 -0.8 59
2019-06-06 12:00:00 18.3 -- -- -- -- 0 907.5 -1 65
2019-06-06 11:00:00 17.9 -- -- -- -- 0 907.8 -0.9 69
2019-06-06 10:00:00 15.7 -- -- -- -- 0 908 -0.8 82
2019-06-06 09:00:00 7.3 -- -- -- -- 0 908.5 -0.3 99
2019-06-06 08:00:00 4.7 -- -- -- -- 0 908.7 0.1 99
2019-06-06 07:00:00 4 -- -- -- -- 0 908.8 0.2 99
2019-06-06 06:00:00 4.2 -- -- -- -- 0 908.8 0.2 99
2019-06-06 05:00:00 4.3 -- -- -- -- 0 908.6 0 99
2019-06-06 04:00:00 5.7 -- -- -- -- 0 908.6 0 99
2019-06-06 03:00:00 6.5 -- -- -- -- 0 908.6 0.2 99
2019-06-06 02:00:00 7 -- -- -- -- 0 908.6 0.6 99
2019-06-06 01:00:00 8.1 -- -- -- -- 0 908.6 1.2 99
2019-06-06 00:00:00 9.2 -- -- -- -- 0 908.4 1.6 97
2019-06-05 23:00:00 10.8 -- -- -- -- 0 908 1.4 94
2019-06-05 22:00:00 12.8 -- -- -- -- 0 907.4 1 90
2019-06-05 21:00:00 16.6 -- -- -- -- 0 906.8 0.6 64
2019-06-05 20:00:00 19.4 -- -- -- -- 0 906.6 0.3 53
2019-06-05 19:00:00 19 -- -- -- -- 0.1 906.4 0.4 53
2019-06-05 18:00:00 18.6 -- -- -- -- 0 906.2 0 54
2019-06-05 17:00:00 19.6 -- -- -- -- 0.1 906.3 -0.3 54
2019-06-05 16:00:00 20.4 -- -- -- -- 0 906 -0.2 58
2019-06-05 15:00:00 17.7 -- -- -- -- 0.1 906.2 0.6 62
2019-06-05 14:00:00 16.6 -- -- -- -- 0.1 906.6 1.9 71
2019-06-05 13:00:00 14.8 -- -- -- -- 0 906.2 2 88
2019-06-05 12:00:00 13.5 -- -- -- -- 0.1 905.6 1.7 90
2019-06-05 11:00:00 14.6 -- -- -- -- 0 904.7 1.2 92
2019-06-05 10:00:00 14.7 -- -- -- -- 0.1 904.2 1.3 97
2019-06-05 09:00:00 12.8 -- -- -- -- 0.1 903.9 1.5 99
2019-06-05 08:00:00 12.1 -- -- -- -- 0.1 903.5 1 99
2019-06-05 07:00:00 13.3 -- -- -- -- 0.4 902.9 0.3 99
2019-06-05 06:00:00 14.3 -- -- -- -- 0.2 902.4 -0.7 99
2019-06-05 05:00:00 15.8 -- -- -- -- 0 902.5 -0.9 99
2019-06-05 04:00:00 16 -- -- -- -- 0 902.6 -1.1 99
2019-06-05 03:00:00 15.9 -- -- -- -- 0 903.1 -0.7 99
2019-06-05 02:00:00 16.3 -- -- -- -- 0 903.4 -0.5 95
2019-06-05 01:00:00 17 -- -- -- -- 0 903.7 0.3 92
2019-06-05 00:00:00 17.2 -- -- -- -- 0 903.8 0.7 88
2019-06-04 23:00:00 18.5 -- -- -- -- 0 903.9 0.6 77
2019-06-04 22:00:00 22.7 -- -- -- -- 0 903.4 0.1 59
2019-06-04 21:00:00 25.1 -- -- -- -- 0 903.1 -0.6 55
2019-06-04 20:00:00 28.4 -- -- -- -- 0 903.3 -0.9 53
2019-06-04 19:00:00 27.4 -- -- -- -- 0 903.3 -1.5 53
2019-06-04 18:00:00 27.2 -- -- -- -- 0 903.7 -1.7 54
2019-06-04 17:00:00 27.8 -- -- -- -- 0 904.2 -2.1 51
2019-06-04 16:00:00 27.4 -- -- -- -- 0 904.8 -2.1 50
2019-06-04 15:00:00 29 -- -- -- -- 0 905.4 -1.8 49
2019-06-04 14:00:00 28.1 -- -- -- -- 0 906.3 -1.4 49
2019-06-04 13:00:00 26.8 -- -- -- -- 0 906.9 -1.1 52
2019-06-04 12:00:00 25.7 -- -- -- -- 0 907.2 -1 62
2019-06-04 11:00:00 24.6 -- -- -- -- 0 907.7 -0.9 68
2019-06-04 10:00:00 21.6 -- -- -- -- 0 908 -0.5 88
2019-06-04 09:00:00 13.4 -- -- -- -- 0 908.2 0 99
2019-06-04 08:00:00 10.4 -- -- -- -- 0 908.6 0.2 99
2019-06-04 07:00:00 9.7 -- -- -- -- 0 908.5 -0.2 99
2019-06-04 06:00:00 10.4 -- -- -- -- 0 908.2 -0.9 99
2019-06-04 05:00:00 10.5 -- -- -- -- 0 908.4 -0.9 99
2019-06-04 04:00:00 11.5 -- -- -- -- 0 908.7 -1.2 99
2019-06-04 03:00:00 12.5 -- -- -- -- 0 909.1 -0.7 99
2019-06-04 02:00:00 13.3 -- -- -- -- 0 909.3 -0.4 93
2019-06-04 01:00:00 14.2 -- -- -- -- 0 909.9 0.8 90
2019-06-04 00:00:00 16 -- -- -- -- 0 909.8 0.9 88
2019-06-03 23:00:00 17.4 -- -- -- -- 0 909.7 0.8 79
2019-06-03 22:00:00 20.5 -- -- -- -- 0 909.1 0 69
2019-06-03 21:00:00 24.1 -- -- -- -- 0 908.9 -0.6 55
2019-06-03 20:00:00 30.8 -- -- -- -- 0 908.9 -0.9 41
2019-06-03 19:00:00 31.7 -- -- -- -- 0 909.1 -1.4 41
2019-06-03 18:00:00 31.4 -- -- -- -- 0 909.5 -1.7 40
2019-06-03 17:00:00 31.9 -- -- -- -- 0 909.8 -1.9 43
2019-06-03 16:00:00 30.4 -- -- -- -- 0 910.5 -1.6 46
2019-06-03 15:00:00 30.3 -- -- -- -- 0 911.2 -1 47
2019-06-03 14:00:00 29 -- -- -- -- 0 911.7 -0.4 49
2019-06-03 13:00:00 28 -- -- -- -- 0 912.1 -0.5 55
2019-06-03 12:00:00 27.2 -- -- -- -- 0 912.2 -0.5 57
2019-06-03 11:00:00 26.7 -- -- -- -- 0 912.1 -0.6 62
2019-06-03 10:00:00 21 -- -- -- -- 0 912.6 -0.1 85
2019-06-03 09:00:00 15.3 -- -- -- -- 0 912.7 0.2 99
2019-06-03 08:00:00 12.8 -- -- -- -- 0 912.7 0.4 99
2019-06-03 07:00:00 12.7 -- -- -- -- 0 912.7 0.2 99
2019-06-03 06:00:00 12.6 -- -- -- -- 0 912.5 -0.4 99
2019-06-03 05:00:00 12.7 -- -- -- -- 0 912.3 -0.9 99
2019-06-03 04:00:00 13.7 -- -- -- -- 0 912.5 -0.8 99
2019-06-03 03:00:00 13.4 -- -- -- -- 0 912.9 0 99
2019-06-03 02:00:00 14.4 -- -- -- -- 0 913.2 0.7 98
2019-06-03 01:00:00 15.1 -- -- -- -- 0 913.3 1.7 95
2019-06-03 00:00:00 16 -- -- -- -- 0 912.9 1.7 92
2019-06-02 23:00:00 17.9 -- -- -- -- 0 912.5 1.4 81
2019-06-02 22:00:00 19.8 -- -- -- -- 0 911.6 0.4 75
2019-06-02 21:00:00 23.7 -- -- -- -- 0 911.2 0.1 62
2019-06-02 20:00:00 30.7 -- -- -- -- 0 911.1 -0.6 43
2019-06-02 19:00:00 32.6 -- -- -- -- 0 911.2 -0.7 41
2019-06-02 18:00:00 30.9 -- -- -- -- 0 911.1 -1.2 40
2019-06-02 17:00:00 32.8 -- -- -- -- 0 911.7 -1.6 40
2019-06-02 16:00:00 31.2 -- -- -- -- 0 911.9 -2 41
2019-06-02 15:00:00 30.2 -- -- -- -- 0 912.3 -1.9 44
2019-06-02 14:00:00 28.8 -- -- -- -- 0 913.3 -1 46
2019-06-02 13:00:00 29.7 -- -- -- -- 0 913.9 -0.9 49
2019-06-02 12:00:00 28 -- -- -- -- 0 914.2 -0.7 50
2019-06-02 11:00:00 25.8 -- -- -- -- 0 914.3 -0.7 61
2019-06-02 10:00:00 20 -- -- -- -- 0 914.8 -0.2 86
2019-06-02 09:00:00 12.4 -- -- -- -- 0 914.9 0.1 99
2019-06-02 08:00:00 9.7 -- -- -- -- 0 915 0.2 99
2019-06-02 07:00:00 8.8 -- -- -- -- 0 915 -0.1 99
2019-06-02 06:00:00 9.4 -- -- -- -- 0 914.8 -0.6 99
2019-06-02 05:00:00 10.3 -- -- -- -- 0 914.8 -0.6 99
2019-06-02 04:00:00 11 -- -- -- -- 0 915.1 0.1 99
2019-06-02 03:00:00 11.7 -- -- -- -- 0 915.4 0.5 99
2019-06-02 02:00:00 13.3 -- -- -- -- 0 915.4 1 99
2019-06-02 01:00:00 13.7 -- -- -- -- 0 915 1.7 98
2019-06-02 00:00:00 15.7 -- -- -- -- 0 914.9 2.1 90
2019-06-01 23:00:00 16.9 -- -- -- -- 0 914.4 1.9 86
2019-06-01 22:00:00 19.3 -- -- -- -- 0 913.3 0.8 80
2019-06-01 21:00:00 24 -- -- -- -- 0 912.8 0.1 61
2019-06-01 20:00:00 30.2 -- -- -- -- 0 912.5 -0.7 40
2019-06-01 19:00:00 30.6 -- -- -- -- 0 912.5 -1.2 42
2019-06-01 18:00:00 31.5 -- -- -- -- 0 912.7 -1.7 42
2019-06-01 17:00:00 31.2 -- -- -- -- 0 913.2 -2 43
2019-06-01 16:00:00 30.8 -- -- -- -- 0 913.7 -2 42
2019-06-01 15:00:00 29.2 -- -- -- -- 0 914.4 -1.7 43
2019-06-01 14:00:00 27.6 -- -- -- -- 0 915.2 -1.1 51
2019-06-01 13:00:00 28.2 -- -- -- -- 0 915.7 -1.1 55
2019-06-01 12:00:00 26.5 -- -- -- -- 0 916.1 -1.1 60
2019-06-01 11:00:00 24.9 -- -- -- -- 0 916.3 -1 68
2019-06-01 10:00:00 19.2 -- -- -- -- 0 916.8 -0.4 89
2019-06-01 09:00:00 11.8 -- -- -- -- 0 917.2 0.4 99
2019-06-01 08:00:00 9.3 -- -- -- -- 0 917.3 0.3 99
2019-06-01 07:00:00 9 -- -- -- -- 0 917.2 0.2 99
2019-06-01 06:00:00 9.5 -- -- -- -- 0 916.8 -0.1 99
2019-06-01 05:00:00 10.2 -- -- -- -- 0 917 -0.1 99
2019-06-01 04:00:00 11 -- -- -- -- 0 917 -0.2 99
2019-06-01 03:00:00 11.6 -- -- -- -- 0 916.9 0.1 99
2019-06-01 02:00:00 12.8 -- -- -- -- 0 917.1 0.8 99
2019-06-01 01:00:00 13.7 -- -- -- -- 0 917.2 1.7 99
2019-06-01 00:00:00 15.2 -- -- -- -- 0 916.8 2.1 93
2019-05-31 23:00:00 16.5 -- -- -- -- 0 916.3 2 87
2019-05-31 22:00:00 18.2 -- -- -- -- 0 915.5 1.1 80
2019-05-31 21:00:00 23.1 -- -- -- -- 0 914.7 0.1 58
2019-05-31 20:00:00 28.8 -- -- -- -- 0 914.3 -0.8 40
2019-05-31 19:00:00 29.2 -- -- -- -- 0 914.4 -1.1 40
2019-05-31 18:00:00 29.8 -- -- -- -- 0 914.6 -1.4 39
2019-05-31 17:00:00 30.9 -- -- -- -- 0 915.1 -1.6 41
2019-05-31 16:00:00 29.5 -- -- -- -- 0 915.5 -1.7 43
2019-05-31 15:00:00 29.1 -- -- -- -- 0 916 -1.7 42
2019-05-31 14:00:00 27.4 -- -- -- -- 0 916.7 -1.3 43
2019-05-31 13:00:00 26.7 -- -- -- -- 0 917.2 -1.3 44
2019-05-31 12:00:00 25.5 -- -- -- -- 0 917.7 -1.3 55
2019-05-31 11:00:00 23.6 -- -- -- -- 0 918 -1.2 67
2019-05-31 10:00:00 17 -- -- -- -- 0 918.5 -0.5 88
2019-05-31 09:00:00 9.6 -- -- -- -- 0 919 0.2 99
2019-05-31 08:00:00 6.9 -- -- -- -- 0 919.2 0.3 99
2019-05-31 07:00:00 7 -- -- -- -- 0 919 0.1 99
2019-05-31 06:00:00 7.2 -- -- -- -- 0 918.8 -0.5 99
2019-05-31 05:00:00 8.3 -- -- -- -- 0 918.9 -0.3 99
2019-05-31 04:00:00 9.1 -- -- -- -- 0 918.9 -0.3 99
2019-05-31 03:00:00 9.9 -- -- -- -- 0 919.3 0.3 99
2019-05-31 02:00:00 10.5 -- -- -- -- 0 919.2 0.7 99
2019-05-31 01:00:00 12.2 -- -- -- -- 0 919.2 1.7 96
2019-05-31 00:00:00 13.5 -- -- -- -- 0 919 2.4 88
2019-05-30 23:00:00 15.4 -- -- -- -- 0 918.5 2.2 84
2019-05-30 22:00:00 17.6 -- -- -- -- 0 917.5 1.4 69
2019-05-30 21:00:00 23.6 -- -- -- -- 0 916.6 0.2 43
2019-05-30 20:00:00 26.8 -- -- -- -- 0 916.3 -0.3 40
2019-05-30 19:00:00 27.3 -- -- -- -- 0 916.1 -0.7 37
2019-05-30 18:00:00 28 -- -- -- -- 0 916.4 -0.9 37
2019-05-30 17:00:00 29 -- -- -- -- 0 916.6 -0.9 40
2019-05-30 16:00:00 27.2 -- -- -- -- 0 916.8 -0.9 42
2019-05-30 15:00:00 26.5 -- -- -- -- 0 917.3 -0.7 43
2019-05-30 14:00:00 25.6 -- -- -- -- 0 917.5 -0.7 45
2019-05-30 13:00:00 24.8 -- -- -- -- 0 917.7 -0.6 49
2019-05-30 12:00:00 23.2 -- -- -- -- 0 918 -0.6 53
2019-05-30 11:00:00 22.7 -- -- -- -- 0 918.2 -0.3 61
2019-05-30 10:00:00 17.4 -- -- -- -- 0 918.3 -0.2 85
2019-05-30 09:00:00 9.3 -- -- -- -- 0 918.6 0.4 99
2019-05-30 08:00:00 6.5 -- -- -- -- 0 918.5 0.5 99
2019-05-30 07:00:00 5.6 -- -- -- -- 0 918.5 0.5 99
2019-05-30 06:00:00 6.2 -- -- -- -- 0 918.2 0.2 99
2019-05-30 05:00:00 7 -- -- -- -- 0 918 -0.3 99
2019-05-30 04:00:00 7.6 -- -- -- -- 0 918 0 99
2019-05-30 03:00:00 8.9 -- -- -- -- 0 918 0.1 99
2019-05-30 02:00:00 9.5 -- -- -- -- 0 918.3 0.7 99
2019-05-30 01:00:00 10.9 -- -- -- -- 0 918 1 99
2019-05-30 00:00:00 12.1 -- -- -- -- 0 917.9 1.8 93
2019-05-29 23:00:00 14.3 -- -- -- -- 0 917.6 2.1 86
2019-05-29 22:00:00 15.5 -- -- -- -- 0 917 1.7 75
2019-05-29 21:00:00 18.5 -- -- -- -- 0 916.1 0.9 65
2019-05-29 20:00:00 21.8 -- -- -- -- 0 915.5 0.2 58
2019-05-29 19:00:00 22.9 -- -- -- -- 0 915.3 0 58
2019-05-29 18:00:00 23 -- -- -- -- 0 915.2 0.1 59
2019-05-29 17:00:00 22.2 -- -- -- -- 0 915.3 -0.2 60
2019-05-29 16:00:00 22.2 -- -- -- -- 0 915.3 -0.5 60
2019-05-29 15:00:00 20 -- -- -- -- 0 915.1 -0.7 61
2019-05-29 14:00:00 19.2 -- -- -- -- 0 915.5 -0.5 67
2019-05-29 13:00:00 17.7 -- -- -- -- 0 915.8 -0.4 69
2019-05-29 12:00:00 16.8 -- -- -- -- 0 915.8 -0.2 72
2019-05-29 11:00:00 15.4 -- -- -- -- 0 916 0.2 78
2019-05-29 10:00:00 14.3 -- -- -- -- 0 916.2 0.7 83
2019-05-29 09:00:00 10.6 -- -- -- -- 0 916 0.7 94
2019-05-29 08:00:00 8.4 -- -- -- -- 0 915.8 0.6 99
2019-05-29 07:00:00 7.1 -- -- -- -- 0 915.5 0.6 99
2019-05-29 06:00:00 7.9 -- -- -- -- 0 915.3 0.7 96
2019-05-29 05:00:00 8.7 -- -- -- -- 0 915.2 0.4 94
2019-05-29 04:00:00 9.1 -- -- -- -- 0 914.9 0.4 92
2019-05-29 03:00:00 9.7 -- -- -- -- 0 914.6 0.4 91
2019-05-29 02:00:00 10.2 -- -- -- -- 0 914.8 0.7 89
2019-05-29 01:00:00 11 -- -- -- -- 0 914.5 1.3 85
2019-05-29 00:00:00 12.2 -- -- -- -- 0 914.2 2.4 81
2019-05-28 23:00:00 13.2 -- -- -- -- 0 914.1 2.9 77
2019-05-28 22:00:00 15 -- -- -- -- 0 913.2 2.8 69
2019-05-28 21:00:00 16.9 -- -- -- -- 0 911.8 1.8 61
2019-05-28 20:00:00 19.7 -- -- -- -- 0 911.2 1.3 55
2019-05-28 19:00:00 22.8 -- -- -- -- 0 910.4 0.3 49
2019-05-28 18:00:00 23.3 -- -- -- -- 0 910 0.1 47
2019-05-28 17:00:00 22.5 -- -- -- -- 0 909.9 0 46
2019-05-28 16:00:00 22.3 -- -- -- -- 0 910.1 -0.4 47
2019-05-28 15:00:00 22.5 -- -- -- -- 0 909.9 -0.4 47
2019-05-28 14:00:00 21.6 -- -- -- -- 0 909.9 -0.4 49
2019-05-28 13:00:00 20.3 -- -- -- -- 0 910.5 -0.2 55
2019-05-28 12:00:00 19 -- -- -- -- 0 910.3 0 58
2019-05-28 11:00:00 17.4 -- -- -- -- 0 910.3 0.2 69
2019-05-28 10:00:00 15.1 -- -- -- -- 0 910.7 1 74
2019-05-28 09:00:00 10.8 -- -- -- -- 0 910.3 1.1 99
2019-05-28 08:00:00 8.1 -- -- -- -- 0 910.1 1.3 99
2019-05-28 07:00:00 7.7 -- -- -- -- 0 909.7 1 99
2019-05-28 06:00:00 8.5 -- -- -- -- 0 909.2 0.3 99
2019-05-28 05:00:00 9.1 -- -- -- -- 0 908.8 -0.6 99
2019-05-28 04:00:00 10.3 -- -- -- -- 0 908.7 -0.8 99
2019-05-28 03:00:00 11.5 -- -- -- -- 0 908.9 -0.4 99
2019-05-28 02:00:00 12.4 -- -- -- -- 0 909.4 0.3 99
2019-05-28 01:00:00 14.4 -- -- -- -- 0 909.5 1.3 97
2019-05-28 00:00:00 15.1 -- -- -- -- 0 909.3 2.1 93
2019-05-27 23:00:00 17 -- -- -- -- 0 909.1 2.7 86
2019-05-27 22:00:00 18.1 -- -- -- -- 0 908.2 2.2 80
2019-05-27 21:00:00 20.4 -- -- -- -- 0 907.2 0.7 65
2019-05-27 20:00:00 24.2 -- -- -- -- 0 906.4 -0.2 54
2019-05-27 19:00:00 26 -- -- -- -- 0 906 -1.1 47
2019-05-27 18:00:00 24.3 -- -- -- -- 0 906.5 -0.9 49
2019-05-27 17:00:00 25.5 -- -- -- -- 0 906.6 -1.2 48
2019-05-27 16:00:00 24.7 -- -- -- -- 0 907.1 -1.3 51
2019-05-27 15:00:00 25.3 -- -- -- -- 0 907.4 -1.4 50
2019-05-27 14:00:00 24.3 -- -- -- -- 0 907.8 -1.4 52
2019-05-27 13:00:00 23.7 -- -- -- -- 0 908.4 -1 55
2019-05-27 12:00:00 22.8 -- -- -- -- 0 908.8 -0.8 59
2019-05-27 11:00:00 20.1 -- -- -- -- 0 909.2 -0.4 69
2019-05-27 10:00:00 18.9 -- -- -- -- 0 909.4 -0.5 81
2019-05-27 09:00:00 11.7 -- -- -- -- 0 909.6 0.1 99
2019-05-27 08:00:00 7.6 -- -- -- -- 0 909.6 -0.3 99
2019-05-27 07:00:00 6.7 -- -- -- -- 0 909.9 -0.7 99
2019-05-27 06:00:00 6.9 -- -- -- -- 0 909.5 -1.4 99
2019-05-27 05:00:00 7 -- -- -- -- 0 909.9 -1.3 99
2019-05-27 04:00:00 8.2 -- -- -- -- 0 910.6 -1 99
2019-05-27 03:00:00 8.6 -- -- -- -- 0 910.9 -1 99
2019-05-27 02:00:00 9.1 -- -- -- -- 0 911.2 -0.2 99
2019-05-27 01:00:00 9.9 -- -- -- -- 0 911.6 0.7 99
2019-05-27 00:00:00 11.1 -- -- -- -- 0 911.9 1.5 99
2019-05-26 23:00:00 12.7 -- -- -- -- 0 911.4 1.1 92
2019-05-26 22:00:00 14.2 -- -- -- -- 0 910.9 0.5 82
2019-05-26 21:00:00 18.6 -- -- -- -- 0 910.4 -0.1 60
2019-05-26 20:00:00 21.7 -- -- -- -- 0 910.3 -0.3 54
2019-05-26 19:00:00 23 -- -- -- -- 0 910.4 -0.6 54
2019-05-26 18:00:00 23.7 -- -- -- -- 0 910.5 -0.9 54
2019-05-26 17:00:00 22.5 -- -- -- -- 0 910.6 -1.3 55
2019-05-26 16:00:00 22.2 -- -- -- -- 0 911 -1.2 59
2019-05-26 15:00:00 21.2 -- -- -- -- 0 911.4 -1.4 64
2019-05-26 14:00:00 20.1 -- -- -- -- 0 911.9 -1 68
2019-05-26 13:00:00 18.5 -- -- -- -- 0 912.2 -1 74
2019-05-26 12:00:00 15.3 -- -- -- -- 0 912.8 -0.4 80
2019-05-26 11:00:00 15 -- -- -- -- 0 912.9 0 85
2019-05-26 10:00:00 12.7 -- -- -- -- 0 913.2 0.1 94
2019-05-26 09:00:00 10 -- -- -- -- 0 913.2 0.1 99
2019-05-26 08:00:00 7.6 -- -- -- -- 0 912.9 -0.2 99
2019-05-26 07:00:00 7.6 -- -- -- -- 0 913.1 -0.1 99
2019-05-26 06:00:00 7.5 -- -- -- -- 0 913.1 -0.5 99
2019-05-26 05:00:00 7.7 -- -- -- -- 0 913.1 -0.8 99
2019-05-26 04:00:00 7.4 -- -- -- -- 0 913.2 -0.8 99
2019-05-26 03:00:00 8.2 -- -- -- -- 0 913.6 -0.3 99
2019-05-26 02:00:00 9.7 -- -- -- -- 0 913.9 0.2 99
2019-05-26 01:00:00 11.1 -- -- -- -- 0 914 1.1 99
2019-05-26 00:00:00 13 -- -- -- -- 0 913.9 1.7 96